sensor_id;sensor_type;location;lat;lon;timestamp;pressure;altitude;pressure_sealevel;temperature;humidity
69037;BME280;58547;51.690;5.186;2022-11-20T00:00:39;101425.09;;;-0.20;89.26
69037;BME280;58547;51.690;5.186;2022-11-20T00:03:04;101423.38;;;-0.19;89.76
69037;BME280;58547;51.690;5.186;2022-11-20T00:05:31;101421.69;;;-0.16;89.61
69037;BME280;58547;51.690;5.186;2022-11-20T00:07:57;101415.69;;;-0.19;89.65
69037;BME280;58547;51.690;5.186;2022-11-20T00:10:22;101413.97;;;-0.19;89.41
69037;BME280;58547;51.690;5.186;2022-11-20T00:12:47;101414.00;;;-0.34;87.71
69037;BME280;58547;51.690;5.186;2022-11-20T00:15:12;101431.06;;;-0.38;89.62
69037;BME280;58547;51.690;5.186;2022-11-20T00:17:37;101414.84;;;-0.35;90.00
69037;BME280;58547;51.690;5.186;2022-11-20T00:20:03;101420.81;;;-0.32;89.85
69037;BME280;58547;51.690;5.186;2022-11-20T00:22:28;101418.28;;;-0.33;89.27
69037;BME280;58547;51.690;5.186;2022-11-20T00:24:53;101414.84;;;-0.32;89.76
69037;BME280;58547;51.690;5.186;2022-11-20T00:27:18;101414.00;;;-0.33;89.82
69037;BME280;58547;51.690;5.186;2022-11-20T00:29:43;101416.56;;;-0.34;89.90
69037;BME280;58547;51.690;5.186;2022-11-20T00:32:09;101413.13;;;-0.36;89.94
69037;BME280;58547;51.690;5.186;2022-11-20T00:34:34;101419.13;;;-0.37;89.43
69037;BME280;58547;51.690;5.186;2022-11-20T00:36:59;101415.69;;;-0.43;90.08
69037;BME280;58547;51.690;5.186;2022-11-20T00:39:24;101419.97;;;-0.40;90.19
69037;BME280;58547;51.690;5.186;2022-11-20T00:41:49;101419.13;;;-0.39;89.75
69037;BME280;58547;51.690;5.186;2022-11-20T00:44:15;101419.09;;;-0.47;89.39
69037;BME280;58547;51.690;5.186;2022-11-20T00:46:40;101422.53;;;-0.49;89.97
69037;BME280;58547;51.690;5.186;2022-11-20T00:49:05;101425.94;;;-0.44;90.01
69037;BME280;58547;51.690;5.186;2022-11-20T00:51:30;101423.38;;;-0.47;90.11
69037;BME280;58547;51.690;5.186;2022-11-20T00:53:56;101419.97;;;-0.48;90.17
69037;BME280;58547;51.690;5.186;2022-11-20T00:56:21;101413.97;;;-0.48;89.37
69037;BME280;58547;51.690;5.186;2022-11-20T00:58:47;101416.56;;;-0.56;89.89
69037;BME280;58547;51.690;5.186;2022-11-20T01:01:13;101422.50;;;-0.65;89.53
69037;BME280;58547;51.690;5.186;2022-11-20T01:03:40;101419.94;;;-0.69;89.83
69037;BME280;58547;51.690;5.186;2022-11-20T01:06:09;101417.38;;;-0.74;89.39
69037;BME280;58547;51.690;5.186;2022-11-20T01:08:35;101412.25;;;-0.80;90.17
69037;BME280;58547;51.690;5.186;2022-11-20T01:11:01;101419.94;;;-0.77;90.29
69037;BME280;58547;51.690;5.186;2022-11-20T01:13:27;101422.50;;;-0.78;89.83
69037;BME280;58547;51.690;5.186;2022-11-20T01:16:05;101422.50;;;-0.83;90.10
69037;BME280;58547;51.690;5.186;2022-11-20T01:18:31;101419.94;;;-0.89;89.31
69037;BME280;58547;51.690;5.186;2022-11-20T01:20:59;101415.63;;;-0.95;90.22
69037;BME280;58547;51.690;5.186;2022-11-20T01:23:25;101413.06;;;-0.92;90.76
69037;BME280;58547;51.690;5.186;2022-11-20T01:25:50;101397.72;;;-0.95;90.14
69037;BME280;58547;51.690;5.186;2022-11-20T01:28:15;101396.00;;;-0.93;90.42
69037;BME280;58547;51.690;5.186;2022-11-20T01:30:40;101408.81;;;-0.90;90.14
69037;BME280;58547;51.690;5.186;2022-11-20T01:33:06;101406.25;;;-0.90;90.41
69037;BME280;58547;51.690;5.186;2022-11-20T01:35:31;101413.06;;;-0.95;90.20
69037;BME280;58547;51.690;5.186;2022-11-20T01:37:56;101414.78;;;-0.94;90.74
69037;BME280;58547;51.690;5.186;2022-11-20T01:40:21;101413.06;;;-0.95;90.17
69037;BME280;58547;51.690;5.186;2022-11-20T01:42:47;101418.16;;;-0.98;90.69
69037;BME280;58547;51.690;5.186;2022-11-20T01:45:56;101414.78;;;-1.00;90.90
69037;BME280;58547;51.690;5.186;2022-11-20T01:48:23;101409.66;;;-1.00;90.59
69037;BME280;58547;51.690;5.186;2022-11-20T01:50:49;101408.78;;;-1.04;90.62
69037;BME280;58547;51.690;5.186;2022-11-20T01:53:16;101409.66;;;-1.06;90.50
69037;BME280;58547;51.690;5.186;2022-11-20T01:55:47;101404.47;;;-1.15;90.41
69037;BME280;58547;51.690;5.186;2022-11-20T01:58:14;101400.19;;;-1.21;90.56
69037;BME280;58547;51.690;5.186;2022-11-20T02:00:40;101393.34;;;-1.28;90.16
69037;BME280;58547;51.690;5.186;2022-11-20T02:03:07;101396.78;;;-1.31;90.46
69037;BME280;58547;51.690;5.186;2022-11-20T02:08:17;101388.28;;;-1.20;90.88
69037;BME280;58547;51.690;5.186;2022-11-20T02:10:43;101390.81;;;-1.17;90.93
69037;BME280;58547;51.690;5.186;2022-11-20T02:13:08;101390.81;;;-1.20;90.95
69037;BME280;58547;51.690;5.186;2022-11-20T02:15:52;101392.53;;;-1.18;90.98
69037;BME280;58547;51.690;5.186;2022-11-20T02:18:18;101394.25;;;-1.15;91.45
69037;BME280;58547;51.690;5.186;2022-11-20T02:20:45;101404.47;;;-1.15;90.87
69037;BME280;58547;51.690;5.186;2022-11-20T02:25:36;101399.38;;;-1.15;91.38
69037;BME280;58547;51.690;5.186;2022-11-20T02:28:02;101399.34;;;-1.22;89.32
69037;BME280;58547;51.690;5.186;2022-11-20T02:30:27;101396.72;;;-1.38;90.72
69037;BME280;58547;51.690;5.186;2022-11-20T02:32:52;101399.28;;;-1.40;91.38
69037;BME280;58547;51.690;5.186;2022-11-20T02:37:43;101391.63;;;-1.38;92.19
69037;BME280;58547;51.690;5.186;2022-11-20T02:40:09;101377.09;;;-1.41;90.83
69037;BME280;58547;51.690;5.186;2022-11-20T02:42:35;101391.59;;;-1.45;91.21
69037;BME280;58547;51.690;5.186;2022-11-20T02:45:00;101396.72;;;-1.43;91.73
69037;BME280;58547;51.690;5.186;2022-11-20T02:47:26;101396.72;;;-1.43;91.01
69037;BME280;58547;51.690;5.186;2022-11-20T02:49:51;101383.91;;;-1.45;92.11
69037;BME280;58547;51.690;5.186;2022-11-20T02:52:16;101388.19;;;-1.44;91.31
69037;BME280;58547;51.690;5.186;2022-11-20T02:54:41;101383.88;;;-1.51;91.18
69037;BME280;58547;51.690;5.186;2022-11-20T02:57:06;101380.44;;;-1.60;91.24
69037;BME280;58547;51.690;5.186;2022-11-20T02:59:32;101379.56;;;-1.63;90.94
69037;BME280;58547;51.690;5.186;2022-11-20T03:01:57;101382.13;;;-1.69;91.02
69037;BME280;58547;51.690;5.186;2022-11-20T03:04:22;101379.56;;;-1.64;91.96
69037;BME280;58547;51.690;5.186;2022-11-20T03:06:47;101374.44;;;-1.63;91.31
69037;BME280;58547;51.690;5.186;2022-11-20T03:09:12;101375.31;;;-1.64;91.56
69037;BME280;58547;51.690;5.186;2022-11-20T03:11:38;101367.59;;;-1.70;90.93
69037;BME280;58547;51.690;5.186;2022-11-20T03:14:04;101370.16;;;-1.73;91.69
69037;BME280;58547;51.690;5.186;2022-11-20T03:16:30;101372.69;;;-1.77;91.31
69037;BME280;58547;51.690;5.186;2022-11-20T03:18:55;101369.25;;;-1.79;92.07
69037;BME280;58547;51.690;5.186;2022-11-20T03:21:20;101373.56;;;-1.77;91.57
69037;BME280;58547;51.690;5.186;2022-11-20T03:23:45;101368.44;;;-1.77;91.61
69037;BME280;58547;51.690;5.186;2022-11-20T03:26:15;101364.19;;;-1.75;91.66
69037;BME280;58547;51.690;5.186;2022-11-20T03:28:41;101364.16;;;-1.76;92.06
69037;BME280;58547;51.690;5.186;2022-11-20T03:31:08;101357.38;;;-1.73;92.18
69037;BME280;58547;51.690;5.186;2022-11-20T03:33:33;101349.72;;;-1.68;91.78
69037;BME280;58547;51.690;5.186;2022-11-20T03:36:05;101356.53;;;-1.66;92.33
69037;BME280;58547;51.690;5.186;2022-11-20T03:38:32;101353.16;;;-1.61;92.28
69037;BME280;58547;51.690;5.186;2022-11-20T03:40:58;101349.72;;;-1.65;91.36
69037;BME280;58547;51.690;5.186;2022-11-20T03:43:23;101347.16;;;-1.70;91.80
69037;BME280;58547;51.690;5.186;2022-11-20T03:45:48;101341.19;;;-1.70;91.99
69037;BME280;58547;51.690;5.186;2022-11-20T03:48:13;101339.47;;;-1.70;92.76
69037;BME280;58547;51.690;5.186;2022-11-20T03:50:39;101342.88;;;-1.72;91.94
69037;BME280;58547;51.690;5.186;2022-11-20T03:53:04;101336.91;;;-1.73;92.15
69037;BME280;58547;51.690;5.186;2022-11-20T03:55:29;101331.78;;;-1.71;91.95
69037;BME280;58547;51.690;5.186;2022-11-20T03:57:54;101329.25;;;-1.70;92.16
69037;BME280;58547;51.690;5.186;2022-11-20T04:00:20;101328.38;;;-1.72;92.13
69037;BME280;58547;51.690;5.186;2022-11-20T04:02:45;101330.09;;;-1.71;91.95
69037;BME280;58547;51.690;5.186;2022-11-20T04:05:10;101319.88;;;-1.72;92.34
69037;BME280;58547;51.690;5.186;2022-11-20T04:07:35;101319.00;;;-1.73;92.15
69037;BME280;58547;51.690;5.186;2022-11-20T04:10:00;101319.00;;;-1.73;92.47
69037;BME280;58547;51.690;5.186;2022-11-20T04:12:26;101316.44;;;-1.74;91.91
69037;BME280;58547;51.690;5.186;2022-11-20T04:14:51;101314.72;;;-1.75;93.23
69037;BME280;58547;51.690;5.186;2022-11-20T04:17:16;101315.56;;;-1.78;92.28
69037;BME280;58547;51.690;5.186;2022-11-20T04:19:41;101317.22;;;-1.86;92.13
69037;BME280;58547;51.690;5.186;2022-11-20T04:22:06;101315.50;;;-1.95;92.00
69037;BME280;58547;51.690;5.186;2022-11-20T04:24:32;101316.31;;;-1.96;92.69
69037;BME280;58547;51.690;5.186;2022-11-20T04:26:57;101324.00;;;-1.94;92.50
69037;BME280;58547;51.690;5.186;2022-11-20T04:29:22;101329.13;;;-1.94;92.31
69037;BME280;58547;51.690;5.186;2022-11-20T04:31:47;101314.63;;;-1.98;92.59
69037;BME280;58547;51.690;5.186;2022-11-20T04:34:12;101318.84;;;-2.07;90.89
69037;BME280;58547;51.690;5.186;2022-11-20T04:36:38;101316.13;;;-2.34;88.61
69037;BME280;58547;51.690;5.186;2022-11-20T04:39:04;101309.09;;;-2.66;88.74
69037;BME280;58547;51.690;5.186;2022-11-20T04:41:30;101314.03;;;-2.88;89.26
69037;BME280;58547;51.690;5.186;2022-11-20T04:43:57;101303.69;;;-3.03;90.68
69037;BME280;58547;51.690;5.186;2022-11-20T04:46:25;101306.16;;;-3.11;91.32
69037;BME280;58547;51.690;5.186;2022-11-20T04:48:50;101296.81;;;-3.12;92.10
69037;BME280;58547;51.690;5.186;2022-11-20T04:51:15;101292.59;;;-3.08;93.47
69037;BME280;58547;51.690;5.186;2022-11-20T04:53:41;101297.81;;;-2.96;92.71
69037;BME280;58547;51.690;5.186;2022-11-20T04:56:07;101297.06;;;-2.79;93.65
69037;BME280;58547;51.690;5.186;2022-11-20T04:58:33;101295.28;;;-2.90;91.44
69037;BME280;58547;51.690;5.186;2022-11-20T05:01:05;101289.28;;;-2.98;92.99
69037;BME280;58547;51.690;5.186;2022-11-20T05:03:30;101295.28;;;-2.91;93.28
69037;BME280;58547;51.690;5.186;2022-11-20T05:05:56;101291.75;;;-3.10;90.71
69037;BME280;58547;51.690;5.186;2022-11-20T05:08:21;101291.50;;;-3.32;91.35
69037;BME280;58547;51.690;5.186;2022-11-20T05:10:46;101296.50;;;-3.44;91.67
69037;BME280;58547;51.690;5.186;2022-11-20T05:13:11;101289.59;;;-3.53;91.80
69037;BME280;58547;51.690;5.186;2022-11-20T05:15:36;101288.75;;;-3.53;92.80
69037;BME280;58547;51.690;5.186;2022-11-20T05:18:02;101285.41;;;-3.49;93.16
69037;BME280;58547;51.690;5.186;2022-11-20T05:20:27;101276.22;;;-3.30;93.84
69037;BME280;58547;51.690;5.186;2022-11-20T05:22:52;101273.84;;;-3.13;93.75
69037;BME280;58547;51.690;5.186;2022-11-20T05:25:21;101274.84;;;-2.96;94.05
69037;BME280;58547;51.690;5.186;2022-11-20T05:27:46;101282.53;;;-2.90;92.73
69037;BME280;58547;51.690;5.186;2022-11-20T05:30:11;101283.34;;;-2.94;92.42
69037;BME280;58547;51.690;5.186;2022-11-20T05:32:37;101279.00;;;-3.06;91.36
69037;BME280;58547;51.690;5.186;2022-11-20T05:35:02;101267.72;;;-3.32;90.40
69037;BME280;58547;51.690;5.186;2022-11-20T05:37:27;101273.38;;;-3.62;90.53
69037;BME280;58547;51.690;5.186;2022-11-20T05:39:52;101273.94;;;-3.87;90.44
69037;BME280;58547;51.690;5.186;2022-11-20T05:42:18;101285.63;;;-4.02;90.57
69037;BME280;58547;51.690;5.186;2022-11-20T05:44:55;101292.44;;;-4.01;92.96
69037;BME280;58547;51.690;5.186;2022-11-20T05:47:20;101287.66;;;-3.77;97.01
69037;BME280;58547;51.690;5.186;2022-11-20T05:49:46;101294.44;;;-3.76;92.67
69037;BME280;58547;51.690;5.186;2022-11-20T05:52:11;101310.44;;;-3.89;92.35
69037;BME280;58547;51.690;5.186;2022-11-20T05:54:36;101302.66;;;-4.01;92.10
69037;BME280;58547;51.690;5.186;2022-11-20T05:57:01;101302.59;;;-4.06;93.25
69037;BME280;58547;51.690;5.186;2022-11-20T05:59:26;101311.09;;;-4.05;93.94
69037;BME280;58547;51.690;5.186;2022-11-20T06:01:52;101315.34;;;-4.06;93.05
69037;BME280;58547;51.690;5.186;2022-11-20T06:04:17;101319.56;;;-4.05;93.16
69037;BME280;58547;51.690;5.186;2022-11-20T06:06:42;101322.97;;;-4.06;94.15
69037;BME280;58547;51.690;5.186;2022-11-20T06:09:07;101313.66;;;-4.04;93.90
69037;BME280;58547;51.690;5.186;2022-11-20T06:11:32;101303.50;;;-4.01;93.43
69037;BME280;58547;51.690;5.186;2022-11-20T06:13:58;101300.13;;;-3.98;94.15
69037;BME280;58547;51.690;5.186;2022-11-20T06:16:23;101298.50;;;-3.92;93.92
69037;BME280;58547;51.690;5.186;2022-11-20T06:18:48;101304.63;;;-3.79;93.89
69037;BME280;58547;51.690;5.186;2022-11-20T06:21:17;101291.97;;;-3.70;93.93
69037;BME280;58547;51.690;5.186;2022-11-20T06:23:43;101287.84;;;-3.58;94.74
69037;BME280;58547;51.690;5.186;2022-11-20T06:26:09;101286.28;;;-3.46;95.35
69037;BME280;58547;51.690;5.186;2022-11-20T06:28:34;101279.72;;;-3.20;96.18
69037;BME280;58547;51.690;5.186;2022-11-20T06:30:59;101285.84;;;-3.03;95.13
69037;BME280;58547;51.690;5.186;2022-11-20T06:33:24;101284.94;;;-3.07;94.20
69037;BME280;58547;51.690;5.186;2022-11-20T06:35:50;101278.91;;;-3.18;94.45
69037;BME280;58547;51.690;5.186;2022-11-20T06:38:16;101280.72;;;-3.06;94.62
69037;BME280;58547;51.690;5.186;2022-11-20T06:40:41;101273.88;;;-3.07;94.21
69037;BME280;58547;51.690;5.186;2022-11-20T06:43:07;101276.53;;;-2.98;93.93
69037;BME280;58547;51.690;5.186;2022-11-20T06:45:32;101285.03;;;-2.94;93.90
69037;BME280;58547;51.690;5.186;2022-11-20T06:47:57;101268.78;;;-3.07;92.75
69037;BME280;58547;51.690;5.186;2022-11-20T06:50:23;101263.44;;;-3.32;93.02
69037;BME280;58547;51.690;5.186;2022-11-20T06:52:48;101266.88;;;-3.33;93.58
69037;BME280;58547;51.690;5.186;2022-11-20T06:55:13;101274.44;;;-3.39;93.71
69037;BME280;58547;51.690;5.186;2022-11-20T06:57:39;101271.06;;;-3.39;94.14
69037;BME280;58547;51.690;5.186;2022-11-20T07:00:04;101280.44;;;-3.34;93.94
69037;BME280;58547;51.690;5.186;2022-11-20T07:02:29;101263.44;;;-3.35;93.72
69037;BME280;58547;51.690;5.186;2022-11-20T07:04:54;101269.38;;;-3.36;93.66
69037;BME280;58547;51.690;5.186;2022-11-20T07:07:20;101280.34;;;-3.44;93.80
69037;BME280;58547;51.690;5.186;2022-11-20T07:09:45;101281.03;;;-3.59;93.25
69037;BME280;58547;51.690;5.186;2022-11-20T07:12:10;101274.97;;;-3.69;93.33
69037;BME280;58547;51.690;5.186;2022-11-20T07:14:35;101275.00;;;-3.68;94.90
69037;BME280;58547;51.690;5.186;2022-11-20T07:17:00;101267.47;;;-3.57;95.73
69037;BME280;58547;51.690;5.186;2022-11-20T07:19:26;101270.00;;;-3.57;94.55
69037;BME280;58547;51.690;5.186;2022-11-20T07:21:51;101268.22;;;-3.66;94.26
69037;BME280;58547;51.690;5.186;2022-11-20T07:24:16;101263.91;;;-3.71;94.99
69037;BME280;58547;51.690;5.186;2022-11-20T07:26:41;101271.56;;;-3.73;95.22
69037;BME280;58547;51.690;5.186;2022-11-20T07:29:06;101274.97;;;-3.71;95.66
69037;BME280;58547;51.690;5.186;2022-11-20T07:31:31;101262.22;;;-3.69;95.65
69037;BME280;58547;51.690;5.186;2022-11-20T07:33:57;101256.31;;;-3.68;95.87
69037;BME280;58547;51.690;5.186;2022-11-20T07:36:22;101261.41;;;-3.65;96.21
69037;BME280;58547;51.690;5.186;2022-11-20T07:38:47;101258.91;;;-3.60;96.39
69037;BME280;58547;51.690;5.186;2022-11-20T07:41:12;101248.81;;;-3.53;96.51
69037;BME280;58547;51.690;5.186;2022-11-20T07:43:37;101247.16;;;-3.49;95.91
69037;BME280;58547;51.690;5.186;2022-11-20T07:46:03;101248.91;;;-3.43;96.33
69037;BME280;58547;51.690;5.186;2022-11-20T07:48:29;101249.94;;;-3.24;98.01
69037;BME280;58547;51.690;5.186;2022-11-20T07:50:54;101251.81;;;-3.02;97.58
69037;BME280;58547;51.690;5.186;2022-11-20T07:53:22;101251.97;;;-2.77;98.18
69037;BME280;58547;51.690;5.186;2022-11-20T07:55:47;101246.13;;;-2.64;97.42
69037;BME280;58547;51.690;5.186;2022-11-20T07:58:13;101254.72;;;-2.51;97.20
69037;BME280;58547;51.690;5.186;2022-11-20T08:00:39;101257.31;;;-2.45;96.23
69037;BME280;58547;51.690;5.186;2022-11-20T08:03:04;101257.38;;;-2.37;96.89
69037;BME280;58547;51.690;5.186;2022-11-20T08:05:29;101260.81;;;-2.28;96.65
69037;BME280;58547;51.690;5.186;2022-11-20T08:07:54;101259.16;;;-2.15;97.16
69037;BME280;58547;51.690;5.186;2022-11-20T08:10:20;101264.34;;;-1.99;96.20
69037;BME280;58547;51.690;5.186;2022-11-20T08:12:49;101250.72;;;-1.98;96.13
69037;BME280;58547;51.690;5.186;2022-11-20T08:15:33;101255.88;;;-1.86;96.76
69037;BME280;58547;51.690;5.186;2022-11-20T08:20:26;101265.28;;;-1.76;96.20
69037;BME280;58547;51.690;5.186;2022-11-20T08:22:51;101264.44;;;-1.76;96.65
69037;BME280;58547;51.690;5.186;2022-11-20T08:25:16;101258.44;;;-1.85;96.29
69037;BME280;58547;51.690;5.186;2022-11-20T08:27:42;101253.28;;;-1.94;96.13
69037;BME280;58547;51.690;5.186;2022-11-20T08:30:07;101249.03;;;-1.98;95.93
69037;BME280;58547;51.690;5.186;2022-11-20T08:32:32;101254.16;;;-1.98;96.43
69037;BME280;58547;51.690;5.186;2022-11-20T08:34:59;101241.34;;;-1.96;96.23
69037;BME280;58547;51.690;5.186;2022-11-20T08:37:25;101256.75;;;-1.76;97.66
69037;BME280;58547;51.690;5.186;2022-11-20T08:39:50;101248.31;;;-1.48;99.79
69037;BME280;58547;51.690;5.186;2022-11-20T08:42:15;101239.72;;;-1.60;98.06
69037;BME280;58547;51.690;5.186;2022-11-20T08:44:40;101249.97;;;-1.65;97.87
69037;BME280;58547;51.690;5.186;2022-11-20T08:47:05;101245.72;;;-1.65;97.94
69037;BME280;58547;51.690;5.186;2022-11-20T08:49:30;101244.03;;;-1.52;100.00
69037;BME280;58547;51.690;5.186;2022-11-20T08:51:56;101242.34;;;-1.45;99.93
69037;BME280;58547;51.690;5.186;2022-11-20T08:54:21;101238.94;;;-1.41;99.90
69037;BME280;58547;51.690;5.186;2022-11-20T08:56:47;101250.03;;;-1.33;99.70
69037;BME280;58547;51.690;5.186;2022-11-20T08:59:12;101257.69;;;-1.19;99.21
69037;BME280;58547;51.690;5.186;2022-11-20T09:01:38;101256.00;;;-1.03;99.71
69037;BME280;58547;51.690;5.186;2022-11-20T09:04:04;101240.63;;;-0.86;100.00
69037;BME280;58547;51.690;5.186;2022-11-20T09:06:29;101240.63;;;-0.72;99.91
69037;BME280;58547;51.690;5.186;2022-11-20T09:08:54;101233.81;;;-0.83;99.05
69037;BME280;58547;51.690;5.186;2022-11-20T09:11:20;101232.09;;;-0.87;99.63
69037;BME280;58547;51.690;5.186;2022-11-20T09:13:45;101226.13;;;-0.92;98.97
69037;BME280;58547;51.690;5.186;2022-11-20T09:16:10;101236.38;;;-0.89;98.75
69037;BME280;58547;51.690;5.186;2022-11-20T09:18:36;101238.94;;;-0.83;99.26
69037;BME280;58547;51.690;5.186;2022-11-20T09:21:03;101228.69;;;-0.83;99.50
69037;BME280;58547;51.690;5.186;2022-11-20T09:23:33;101238.09;;;-0.85;100.00
69037;BME280;58547;51.690;5.186;2022-11-20T09:26:01;101230.41;;;-0.89;100.00
69037;BME280;58547;51.690;5.186;2022-11-20T09:28:27;101215.91;;;-0.93;99.99
69037;BME280;58547;51.690;5.186;2022-11-20T09:30:52;101217.59;;;-0.97;100.00
69037;BME280;58547;51.690;5.186;2022-11-20T09:33:17;101210.78;;;-0.99;100.00
69037;BME280;58547;51.690;5.186;2022-11-20T09:35:43;101207.38;;;-1.00;100.00
69037;BME280;58547;51.690;5.186;2022-11-20T09:38:08;101199.69;;;-0.97;100.00
69037;BME280;58547;51.690;5.186;2022-11-20T09:40:35;101192.00;;;-0.92;100.00
69037;BME280;58547;51.690;5.186;2022-11-20T09:43:12;101191.97;;;-0.86;100.00
69037;BME280;58547;51.690;5.186;2022-11-20T09:53:46;101183.28;;;-0.31;100.00
69037;BME280;58547;51.690;5.186;2022-11-20T09:56:15;101173.88;;;-0.29;100.00
69037;BME280;58547;51.690;5.186;2022-11-20T09:58:42;101173.03;;;-0.36;100.00
69037;BME280;58547;51.690;5.186;2022-11-20T10:01:16;101173.91;;;-0.40;100.00
69037;BME280;58547;51.690;5.186;2022-11-20T10:06:28;101157.69;;;-0.42;100.00
69037;BME280;58547;51.690;5.186;2022-11-20T10:09:40;101153.44;;;-0.42;100.00
69037;BME280;58547;51.690;5.186;2022-11-20T10:11:44;101135.44;;;-0.31;100.00
69037;BME280;58547;51.690;5.186;2022-11-20T10:14:21;101127.69;;;-0.20;100.00
69037;BME280;58547;51.690;5.186;2022-11-20T10:27:16;101106.81;;;0.31;100.00
69037;BME280;58547;51.690;5.186;2022-11-20T10:29:47;101103.31;;;0.43;100.00
69037;BME280;58547;51.690;5.186;2022-11-20T10:32:20;101087.03;;;0.48;100.00
69037;BME280;58547;51.690;5.186;2022-11-20T10:34:47;101075.88;;;0.51;100.00
69037;BME280;58547;51.690;5.186;2022-11-20T10:37:27;101082.63;;;0.59;100.00
69037;BME280;58547;51.690;5.186;2022-11-20T10:39:58;101079.97;;;0.70;100.00
69037;BME280;58547;51.690;5.186;2022-11-20T10:42:30;101079.00;;;0.80;100.00
69037;BME280;58547;51.690;5.186;2022-11-20T10:45:13;101074.63;;;0.90;100.00
69037;BME280;58547;51.690;5.186;2022-11-20T10:47:40;101068.47;;;1.05;100.00
69037;BME280;58547;51.690;5.186;2022-11-20T10:50:08;101062.38;;;1.12;100.00
69037;BME280;58547;51.690;5.186;2022-11-20T10:55:33;101063.94;;;1.26;100.00
69037;BME280;58547;51.690;5.186;2022-11-20T10:58:16;101051.88;;;1.32;100.00
69037;BME280;58547;51.690;5.186;2022-11-20T11:00:46;101050.88;;;1.41;100.00
69037;BME280;58547;51.690;5.186;2022-11-20T11:03:22;101044.00;;;1.43;100.00
69037;BME280;58547;51.690;5.186;2022-11-20T11:05:50;101040.69;;;1.36;100.00
69037;BME280;58547;51.690;5.186;2022-11-20T11:08:18;101039.00;;;1.32;100.00
69037;BME280;58547;51.690;5.186;2022-11-20T11:13:22;101033.94;;;1.26;100.00
69037;BME280;58547;51.690;5.186;2022-11-20T11:15:48;101036.53;;;1.26;100.00
69037;BME280;58547;51.690;5.186;2022-11-20T11:18:22;101040.81;;;1.26;100.00
69037;BME280;58547;51.690;5.186;2022-11-20T11:20:51;101041.72;;;1.23;100.00
69037;BME280;58547;51.690;5.186;2022-11-20T11:23:28;101030.53;;;1.26;100.00
69037;BME280;58547;51.690;5.186;2022-11-20T11:25:56;101031.38;;;1.26;100.00
69037;BME280;58547;51.690;5.186;2022-11-20T11:28:22;101020.28;;;1.23;100.00
69037;BME280;58547;51.690;5.186;2022-11-20T11:30:49;101019.34;;;1.30;100.00
69037;BME280;58547;51.690;5.186;2022-11-20T11:33:18;101021.69;;;1.45;100.00
69037;BME280;58547;51.690;5.186;2022-11-20T11:35:45;101016.53;;;1.48;100.00
69037;BME280;58547;51.690;5.186;2022-11-20T11:38:12;101004.44;;;1.53;100.00
69037;BME280;58547;51.690;5.186;2022-11-20T11:40:39;101003.59;;;1.53;100.00
69037;BME280;58547;51.690;5.186;2022-11-20T11:43:06;100995.06;;;1.51;100.00
69037;BME280;58547;51.690;5.186;2022-11-20T11:45:52;100989.94;;;1.51;100.00
69037;BME280;58547;51.690;5.186;2022-11-20T11:48:18;100986.47;;;1.53;100.00
69037;BME280;58547;51.690;5.186;2022-11-20T11:50:48;100972.69;;;1.57;100.00
69037;BME280;58547;51.690;5.186;2022-11-20T11:53:14;100963.97;;;1.66;100.00
69037;BME280;58547;51.690;5.186;2022-11-20T11:55:50;100949.28;;;1.74;100.00
69037;BME280;58547;51.690;5.186;2022-11-20T12:01:06;100926.84;;;1.84;100.00
69037;BME280;58547;51.690;5.186;2022-11-20T12:03:39;100909.59;;;1.89;100.00
69037;BME280;58547;51.690;5.186;2022-11-20T12:06:15;100913.75;;;1.96;100.00
69037;BME280;58547;51.690;5.186;2022-11-20T12:08:46;100907.63;;;2.03;100.00
69037;BME280;58547;51.690;5.186;2022-11-20T12:13:56;100895.41;;;2.15;100.00
69037;BME280;58547;51.690;5.186;2022-11-20T12:16:23;100892.75;;;2.19;100.00
69037;BME280;58547;51.690;5.186;2022-11-20T12:18:49;100891.81;;;2.23;100.00
69037;BME280;58547;51.690;5.186;2022-11-20T12:31:45;100878.41;;;2.50;100.00
69037;BME280;58547;51.690;5.186;2022-11-20T12:34:35;100880.03;;;2.54;100.00
69037;BME280;58547;51.690;5.186;2022-11-20T12:37:09;100882.56;;;2.57;100.00
69037;BME280;58547;51.690;5.186;2022-11-20T12:39:40;100879.91;;;2.61;100.00
69037;BME280;58547;51.690;5.186;2022-11-20T12:52:51;100840.00;;;2.40;100.00
69037;BME280;58547;51.690;5.186;2022-11-20T12:57:53;100828.84;;;2.40;100.00
69037;BME280;58547;51.690;5.186;2022-11-20T13:00:20;100829.63;;;2.43;100.00
69037;BME280;58547;51.690;5.186;2022-11-20T13:03:00;100820.94;;;2.49;100.00
69037;BME280;58547;51.690;5.186;2022-11-20T13:07:58;100796.69;;;2.58;100.00
69037;BME280;58547;51.690;5.186;2022-11-20T13:10:33;100802.63;;;2.61;100.00
69037;BME280;58547;51.690;5.186;2022-11-20T13:18:12;100785.22;;;2.73;100.00
69037;BME280;58547;51.690;5.186;2022-11-20T13:20:42;100778.94;;;2.84;100.00
69037;BME280;58547;51.690;5.186;2022-11-20T13:23:07;100770.00;;;2.99;100.00
69037;BME280;58547;51.690;5.186;2022-11-20T13:25:34;100761.31;;;3.03;100.00
69037;BME280;58547;51.690;5.186;2022-11-20T13:28:00;100763.16;;;2.98;100.00
69037;BME280;58547;51.690;5.186;2022-11-20T13:30:26;100755.53;;;2.94;100.00
69037;BME280;58547;51.690;5.186;2022-11-20T13:32:53;100752.88;;;2.97;100.00
69037;BME280;58547;51.690;5.186;2022-11-20T13:35:32;100748.50;;;3.00;100.00
69037;BME280;58547;51.690;5.186;2022-11-20T13:40:29;100752.56;;;3.09;100.00
69037;BME280;58547;51.690;5.186;2022-11-20T13:45:22;100732.53;;;3.20;100.00
69037;BME280;58547;51.690;5.186;2022-11-20T13:47:48;100732.47;;;3.23;100.00
69037;BME280;58547;51.690;5.186;2022-11-20T13:50:13;100733.25;;;3.26;100.00
69037;BME280;58547;51.690;5.186;2022-11-20T13:52:49;100718.59;;;3.28;100.00
69037;BME280;58547;51.690;5.186;2022-11-20T14:00:20;100709.81;;;3.35;100.00
69037;BME280;58547;51.690;5.186;2022-11-20T14:02:51;100705.50;;;3.35;100.00
69037;BME280;58547;51.690;5.186;2022-11-20T14:05:23;100705.56;;;3.34;100.00
69037;BME280;58547;51.690;5.186;2022-11-20T14:07:49;100702.97;;;3.34;100.00
69037;BME280;58547;51.690;5.186;2022-11-20T14:10:19;100703.78;;;3.36;100.00
69037;BME280;58547;51.690;5.186;2022-11-20T14:12:45;100698.53;;;3.39;100.00